createdAt,value
2019-03-04T00:05:01.940Z,2.23
2019-03-04T00:10:07.523Z,2.63
2019-03-04T00:15:12.911Z,2.50
2019-03-04T00:20:18.288Z,2.57
2019-03-04T00:25:23.684Z,2.27
2019-03-04T00:30:29.048Z,2.70
2019-03-04T00:35:34.386Z,2.40
2019-03-04T00:40:39.789Z,2.67
2019-03-04T00:45:45.337Z,1.73
2019-03-04T00:50:50.726Z,2.10
2019-03-04T00:55:56.079Z,1.90
2019-03-04T01:01:01.490Z,1.80
2019-03-04T01:06:06.893Z,1.60
2019-03-04T01:11:12.367Z,1.80
2019-03-04T01:16:17.740Z,1.77
2019-03-04T01:21:23.145Z,1.73
2019-03-04T01:26:28.606Z,1.70
2019-03-04T01:31:33.963Z,2.00
2019-03-04T01:36:39.415Z,1.70
2019-03-04T01:41:44.808Z,1.43
2019-03-04T01:46:50.156Z,1.50
2019-03-04T01:51:55.688Z,1.70
2019-03-04T01:57:01.099Z,1.33
2019-03-04T02:02:06.664Z,1.30
2019-03-04T02:07:12.101Z,1.60
2019-03-04T02:12:17.619Z,1.30
2019-03-04T02:17:22.970Z,1.30
2019-03-04T02:22:28.422Z,1.13
2019-03-04T02:27:33.828Z,1.30
2019-03-04T02:32:39.195Z,1.20
2019-03-04T02:37:44.536Z,1.53
2019-03-04T02:42:49.915Z,1.60
2019-03-04T02:47:55.311Z,1.40
2019-03-04T02:53:00.676Z,1.70
2019-03-04T02:58:06.217Z,1.47
2019-03-04T03:03:11.642Z,1.90
2019-03-04T03:08:17.086Z,1.60
2019-03-04T03:13:22.584Z,1.83
2019-03-04T03:18:28.051Z,2.10
2019-03-04T03:23:33.545Z,1.80
2019-03-04T03:28:39.001Z,1.87
2019-03-04T03:33:44.434Z,1.83
2019-03-04T03:38:49.953Z,1.80
2019-03-04T03:43:55.425Z,1.90
2019-03-04T03:49:00.797Z,2.23
2019-03-04T03:54:06.182Z,1.40
2019-03-04T03:59:11.571Z,1.63
2019-03-04T04:04:17.035Z,1.50
2019-03-04T04:09:22.525Z,1.70
2019-03-04T04:14:29.348Z,1.50
2019-03-04T04:19:34.921Z,1.30
2019-03-04T04:24:40.313Z,1.10
2019-03-04T04:29:45.719Z,1.47
2019-03-04T04:34:51.087Z,1.23
2019-03-04T04:39:56.507Z,1.20
2019-03-04T04:45:02.027Z,1.40
2019-03-04T04:50:09.666Z,1.53
2019-03-04T04:55:15.126Z,1.50
2019-03-04T05:00:20.532Z,1.50
2019-03-04T05:05:25.938Z,1.60
2019-03-04T05:10:31.540Z,1.50
2019-03-04T05:15:36.982Z,1.70
2019-03-04T05:20:42.391Z,1.70
2019-03-04T05:25:47.800Z,1.70
2019-03-04T05:30:53.169Z,1.50
2019-03-04T05:35:58.668Z,1.53
2019-03-04T05:41:04.063Z,1.70
2019-03-04T05:46:09.545Z,1.63
2019-03-04T05:51:15.081Z,1.80
2019-03-04T05:56:20.462Z,1.60
2019-03-04T06:01:31.595Z,1.30
2019-03-04T06:07:01.793Z,1.50
2019-03-04T06:12:07.181Z,1.70
2019-03-04T06:17:12.577Z,1.67
2019-03-04T06:22:17.973Z,2.93
2019-03-04T06:27:23.553Z,2.90
2019-03-04T06:32:28.992Z,1.70
2019-03-04T06:37:34.453Z,1.23
2019-03-04T06:42:39.883Z,1.50
2019-03-04T06:47:45.402Z,1.33
2019-03-04T06:52:50.842Z,1.43
2019-03-04T06:57:56.337Z,1.33
2019-03-04T07:03:04.675Z,1.10
2019-03-04T07:08:20.725Z,1.20
2019-03-04T07:13:26.221Z,1.60
2019-03-04T07:18:31.582Z,1.70
2019-03-04T07:23:36.982Z,2.27
2019-03-04T07:28:42.400Z,1.20
2019-03-04T07:33:47.917Z,1.40
2019-03-04T07:39:06.144Z,1.20
2019-03-04T07:44:11.572Z,1.10
2019-03-04T07:49:16.951Z,1.00
2019-03-04T07:54:22.395Z,1.07
2019-03-04T07:59:30.118Z,1.10
2019-03-04T08:04:35.542Z,1.13
2019-03-04T08:10:36.597Z,1.13
2019-03-04T08:15:51.845Z,1.20
2019-03-04T08:20:57.340Z,1.60
2019-03-04T08:26:03.183Z,1.47
2019-03-04T08:31:09.207Z,1.43
2019-03-04T08:36:15.048Z,1.50
2019-03-04T08:41:20.451Z,1.67
2019-03-04T08:46:25.897Z,1.50
2019-03-04T08:51:31.270Z,1.40
2019-03-04T08:56:36.708Z,1.57
2019-03-04T09:01:42.343Z,1.53
2019-03-04T09:06:47.742Z,1.60
2019-03-04T09:11:53.238Z,1.70
2019-03-04T09:16:59.038Z,1.57
2019-03-04T09:22:04.487Z,1.27
2019-03-04T09:27:09.924Z,1.47
2019-03-04T09:32:15.304Z,1.50
2019-03-04T09:37:20.880Z,2.10
2019-03-04T09:42:28.171Z,1.70
2019-03-04T09:47:33.513Z,1.67
2019-03-04T09:52:38.994Z,1.93
2019-03-04T09:57:44.421Z,2.07
2019-03-04T10:02:49.921Z,2.20
2019-03-04T10:08:33.677Z,2.00
2019-03-04T10:14:30.343Z,2.53
2019-03-04T10:20:25.550Z,2.03
2019-03-04T10:26:22.591Z,1.63
2019-03-04T10:31:56.533Z,2.00
2019-03-04T10:37:31.943Z,2.03
2019-03-04T10:43:38.914Z,2.07
2019-03-04T10:48:44.348Z,1.80
2019-03-04T10:53:49.790Z,2.30
2019-03-04T10:58:55.178Z,2.07
2019-03-04T11:04:00.572Z,1.53
2019-03-04T11:09:07.733Z,1.87
2019-03-04T11:14:13.364Z,1.63
2019-03-04T11:19:18.762Z,1.80
2019-03-04T11:24:24.140Z,1.80
2019-03-04T11:29:29.626Z,1.80
2019-03-04T11:34:35.102Z,1.33
2019-03-04T11:39:46.684Z,1.70
2019-03-04T11:44:52.108Z,1.13
2019-03-04T11:49:57.479Z,1.17
2019-03-04T11:55:02.870Z,0.90
2019-03-04T12:00:17.744Z,1.07
2019-03-04T12:05:23.124Z,1.20
2019-03-04T12:10:28.472Z,1.10
2019-03-04T12:15:33.813Z,0.90
2019-03-04T12:20:39.201Z,1.13
2019-03-04T12:25:44.598Z,1.27
2019-03-04T12:30:49.975Z,1.30
2019-03-04T12:35:55.425Z,1.37
2019-03-04T12:41:00.779Z,1.30
2019-03-04T12:46:06.748Z,1.30
2019-03-04T12:51:12.078Z,1.30
2019-03-04T12:56:17.481Z,1.43
2019-03-04T13:01:22.901Z,1.90
2019-03-04T13:06:28.296Z,1.37
2019-03-04T13:11:33.655Z,1.30
2019-03-04T13:16:39.030Z,1.27
2019-03-04T13:21:44.421Z,1.60
2019-03-04T13:26:49.874Z,1.63
2019-03-04T13:31:55.257Z,1.93
2019-03-04T13:37:00.597Z,1.80
2019-03-04T13:42:06.003Z,1.80
2019-03-04T13:47:11.605Z,2.20
2019-03-04T13:52:17.038Z,1.60
2019-03-04T13:57:22.370Z,2.70
2019-03-04T14:02:27.734Z,1.40
2019-03-04T14:07:33.199Z,1.70
2019-03-04T14:12:38.574Z,1.70
2019-03-04T14:17:43.937Z,1.63
2019-03-04T14:22:57.315Z,1.73
2019-03-04T14:27:56.465Z,1.90
2019-03-04T14:33:01.861Z,1.93
2019-03-04T14:38:07.227Z,1.80
2019-03-04T14:43:12.695Z,2.03
2019-03-04T14:48:18.278Z,1.87
2019-03-04T14:53:23.641Z,1.57
2019-03-04T14:58:29.039Z,1.70
2019-03-04T15:03:34.475Z,2.10
2019-03-04T15:08:39.870Z,2.10
2019-03-04T15:13:46.227Z,2.10
2019-03-04T15:18:51.688Z,2.00
2019-03-04T15:23:57.265Z,2.30
2019-03-04T15:29:02.671Z,1.70
2019-03-04T15:34:08.130Z,1.83
2019-03-04T15:39:22.877Z,1.90
2019-03-04T15:44:23.876Z,2.67
2019-03-04T15:49:29.431Z,2.20
2019-03-04T15:54:34.915Z,2.07
2019-03-04T15:59:40.278Z,2.10
2019-03-04T16:04:45.753Z,1.80
2019-03-04T16:09:51.802Z,2.20
2019-03-04T16:14:57.185Z,2.00
2019-03-04T16:20:02.564Z,1.93
2019-03-04T16:25:08.714Z,1.87
2019-03-04T16:30:17.486Z,2.30
2019-03-04T16:35:23.412Z,1.70
2019-03-04T16:40:29.662Z,1.73
2019-03-04T16:45:36.895Z,1.73
2019-03-04T16:50:44.742Z,1.90
2019-03-04T16:55:51.204Z,1.63
2019-03-04T17:00:57.131Z,1.90
2019-03-04T17:06:07.819Z,2.30
2019-03-04T17:11:16.872Z,1.90
2019-03-04T17:16:26.944Z,1.40
2019-03-04T17:21:33.747Z,1.70
2019-03-04T17:26:41.358Z,1.80
2019-03-04T17:31:49.794Z,2.17
2019-03-04T17:36:56.634Z,1.60
2019-03-04T17:42:02.587Z,1.83
2019-03-04T17:47:08.027Z,1.77
2019-03-04T17:52:13.470Z,1.90
2019-03-04T17:57:18.946Z,2.50
2019-03-04T18:02:24.341Z,2.00
2019-03-04T18:07:29.769Z,2.37
2019-03-04T18:12:35.126Z,2.00
2019-03-04T18:17:40.506Z,2.80
2019-03-04T18:22:45.915Z,2.13
2019-03-04T18:27:56.006Z,2.50
2019-03-04T18:34:07.235Z,3.77
2019-03-04T18:40:13.907Z,2.30
2019-03-04T18:46:22.568Z,3.30
2019-03-04T18:51:30.037Z,2.53
2019-03-04T18:56:35.444Z,3.17
2019-03-04T19:01:40.816Z,3.23
2019-03-04T19:06:46.193Z,3.50
2019-03-04T19:11:51.661Z,2.83
2019-03-04T19:16:57.015Z,2.30
2019-03-04T19:22:02.350Z,2.20
2019-03-04T19:27:07.703Z,2.43
2019-03-04T19:32:13.105Z,2.20
2019-03-04T19:37:18.516Z,2.60
2019-03-04T19:42:23.940Z,1.90
2019-03-04T19:47:29.349Z,2.30
2019-03-04T19:52:34.721Z,2.27
2019-03-04T19:57:41.969Z,2.00
2019-03-04T20:02:48.192Z,2.60
2019-03-04T20:07:53.637Z,1.73
2019-03-04T20:12:59.093Z,1.80
2019-03-04T20:18:04.493Z,3.07
2019-03-04T20:23:09.840Z,4.13
2019-03-04T20:28:16.967Z,3.80
2019-03-04T20:33:22.369Z,2.87
2019-03-04T20:38:33.315Z,1.97
2019-03-04T20:43:38.742Z,2.00
2019-03-04T20:48:44.268Z,2.43
2019-03-04T20:53:49.785Z,3.10
2019-03-04T20:58:55.154Z,1.90
2019-03-04T21:04:00.507Z,1.47
2019-03-04T21:09:07.280Z,1.10
2019-03-04T21:14:12.665Z,1.20
2019-03-04T21:19:18.078Z,1.10
2019-03-04T21:24:23.410Z,1.30
2019-03-04T21:30:30.249Z,1.43
2019-03-04T21:36:16.019Z,1.37
2019-03-04T21:42:17.582Z,1.30
2019-03-04T21:47:40.907Z,1.60
2019-03-04T21:53:18.277Z,3.80
2019-03-04T21:58:23.641Z,2.20
2019-03-04T22:03:33.511Z,2.27
2019-03-04T22:08:38.902Z,2.00
2019-03-04T22:13:44.262Z,2.53
2019-03-04T22:18:49.679Z,2.63
2019-03-04T22:23:55.057Z,3.17
2019-03-04T22:29:00.466Z,2.93
2019-03-04T22:34:05.927Z,2.53
2019-03-04T22:39:11.284Z,2.77
2019-03-04T22:44:16.706Z,2.27
2019-03-04T22:49:22.069Z,2.50
2019-03-04T22:54:29.095Z,1.83
2019-03-04T22:59:34.614Z,2.50
2019-03-04T23:05:10.255Z,2.20
2019-03-04T23:10:44.070Z,2.43
2019-03-04T23:15:51.619Z,2.33
2019-03-04T23:20:57.009Z,2.83
2019-03-04T23:26:02.583Z,2.60
2019-03-04T23:31:08.628Z,3.03
2019-03-04T23:36:14.019Z,3.03
2019-03-04T23:41:19.815Z,2.80
2019-03-04T23:46:25.209Z,2.37
2019-03-04T23:51:30.603Z,2.87
2019-03-04T23:56:36.009Z,2.73
